Time;durP1;ratioP1;P1;durP2;ratioP2;P2;SDS_P1;SDS_P2;PMS_P1;PMS_P2;Temp;Humidity;BMP_temperature;BMP_pressure;BME280_temperature;BME280_humidity;BME280_pressure;Samples;Min_cycle;Max_cycle;Signal;HPM_P1;HPM_P2
2023/07/20 00:01:52;;;;;;;13.43;6.80;;;;;;;19.78;77.46;92717.69;2037100;70;20234;-79
2023/07/20 00:04:19;;;;;;;17.80;7.45;;;;;;;19.70;78.56;92714.63;2040762;70;20163;-79
2023/07/20 00:06:49;;;;;;;12.98;7.10;;;;;;;19.74;78.02;92720.44;2040937;70;20178;-79
2023/07/20 00:09:17;;;;;;;11.10;6.80;;;;;;;19.76;78.09;92723.34;2041060;70;20132;-79
2023/07/20 00:11:52;;;;;;;12.35;6.60;;;;;;;19.86;77.54;92734.31;2040707;70;20142;-80
2023/07/20 00:14:19;;;;;;;12.98;6.43;;;;;;;19.47;76.31;92721.81;2040744;70;20207;-80
2023/07/20 00:16:58;;;;;;;16.90;7.05;;;;;;;19.32;77.19;92705.69;2041490;70;20163;-79
2023/07/20 00:19:31;;;;;;;13.07;6.80;;;;;;;19.34;77.80;92717.16;2041507;70;20248;-79
2023/07/20 00:21:58;;;;;;;13.20;6.35;;;;;;;19.35;77.59;92700.78;2041496;70;20273;-79
2023/07/20 00:24:24;;;;;;;15.63;6.50;;;;;;;19.30;77.89;92691.38;2038260;70;20608;-79
2023/07/20 00:26:50;;;;;;;8.50;6.38;;;;;;;19.16;77.38;92691.69;2041382;70;20556;-79
2023/07/20 00:29:17;;;;;;;11.77;6.47;;;;;;;19.09;77.57;92692.16;2041367;70;20145;-79
2023/07/20 00:31:47;;;;;;;11.85;6.70;;;;;;;19.22;77.67;92694.72;2041616;70;20200;-79
2023/07/20 00:34:19;;;;;;;13.63;7.45;;;;;;;19.17;79.05;92690.28;2041492;70;20186;-79
2023/07/20 00:36:53;;;;;;;11.25;6.45;;;;;;;19.26;77.34;92688.41;2041233;70;20395;-79
2023/07/20 00:39:20;;;;;;;9.35;6.53;;;;;;;19.30;77.37;92697.06;2041568;70;20614;-78
2023/07/20 00:41:50;;;;;;;9.18;6.80;;;;;;;19.35;75.80;92697.91;2038501;70;20140;-78
2023/07/20 00:44:18;;;;;;;11.43;6.18;;;;;;;19.23;77.16;92701.13;2041413;70;20159;-80
2023/07/20 00:46:49;;;;;;;11.43;6.45;;;;;;;19.32;75.95;92702.81;2038113;70;20295;-79
2023/07/20 00:49:23;;;;;;;8.70;6.23;;;;;;;19.22;76.76;92713.97;2038172;70;20171;-80
2023/07/20 00:51:54;;;;;;;9.73;6.07;;;;;;;19.34;76.50;92705.75;2041556;70;20150;-79
2023/07/20 00:54:22;;;;;;;11.13;6.20;;;;;;;19.37;76.60;92698.69;2041370;70;20139;-77
2023/07/20 00:56:58;;;;;;;9.48;5.68;;;;;;;19.37;76.98;92700.81;2041432;70;20570;-79
2023/07/20 00:59:35;;;;;;;9.77;6.30;;;;;;;19.37;77.08;92692.25;2041373;70;20236;-80
2023/07/20 01:02:07;;;;;;;8.90;6.15;;;;;;;19.34;77.73;92687.91;2041403;70;20163;-80
2023/07/20 01:04:41;;;;;;;11.45;6.18;;;;;;;19.21;77.90;92687.56;2041155;70;20183;-79
2023/07/20 01:07:30;;;;;;;8.15;6.10;;;;;;;19.30;77.36;92683.53;2041561;70;20701;-79
2023/07/20 01:10:10;;;;;;;7.78;6.18;;;;;;;19.10;79.15;92676.50;2041463;70;20713;-80
2023/07/20 01:12:52;;;;;;;9.43;6.10;;;;;;;19.11;77.81;92663.72;2041193;70;20147;-80
2023/07/20 01:15:24;;;;;;;12.07;6.80;;;;;;;19.02;78.23;92657.78;2040529;70;20147;-81
2023/07/20 01:17:52;;;;;;;10.50;6.75;;;;;;;19.01;78.63;92669.84;2041051;70;20679;-80
2023/07/20 01:20:23;;;;;;;7.72;5.72;;;;;;;19.07;77.66;92669.31;2041151;70;20143;-79
2023/07/20 01:23:25;;;;;;;12.02;6.88;;;;;;;18.96;79.25;92677.53;2038074;70;20139;-80
2023/07/20 01:26:35;;;;;;;15.02;6.60;;;;;;;19.08;77.18;92667.91;2041562;70;20151;-79
2023/07/20 01:29:29;;;;;;;13.25;6.90;;;;;;;18.90;78.14;92680.22;2041135;70;20132;-79
2023/07/20 01:32:03;;;;;;;11.52;6.57;;;;;;;18.97;77.52;92684.00;2041596;70;20159;-79
2023/07/20 01:34:35;;;;;;;11.38;6.53;;;;;;;18.96;77.05;92683.25;2038378;70;20680;-78
2023/07/20 01:37:04;;;;;;;13.07;6.78;;;;;;;18.88;77.82;92677.31;2038756;70;20155;-79
2023/07/20 01:39:31;;;;;;;11.45;6.35;;;;;;;19.01;77.45;92684.09;2038365;70;20179;-80
2023/07/20 01:41:59;;;;;;;11.15;6.30;;;;;;;19.03;77.37;92684.91;2041870;70;20135;-80
2023/07/20 01:44:29;;;;;;;8.82;6.43;;;;;;;19.03;76.42;92681.31;2041059;70;20147;-79
2023/07/20 01:47:00;;;;;;;11.10;6.22;;;;;;;18.85;78.19;92677.94;2041094;70;20146;-80
2023/07/20 01:49:26;;;;;;;15.73;6.80;;;;;;;19.01;77.44;92676.28;2037705;70;20562;-80
2023/07/20 01:51:53;;;;;;;8.73;5.75;;;;;;;18.95;77.76;92666.81;2040824;70;20147;-80
2023/07/20 01:54:21;;;;;;;8.30;6.10;;;;;;;18.93;77.44;92667.50;2038519;70;20135;-80
2023/07/20 01:56:49;;;;;;;9.05;6.18;;;;;;;18.62;79.38;92659.41;2041024;70;20151;-80
2023/07/20 01:59:15;;;;;;;8.50;6.25;;;;;;;18.71;78.57;92667.56;2041451;70;20240;-79
2023/07/20 02:01:48;;;;;;;11.27;6.30;;;;;;;18.78;77.62;92666.34;2037867;70;20232;-79
2023/07/20 02:04:17;;;;;;;12.45;6.22;;;;;;;18.87;77.68;92667.28;2041426;70;20242;-79
2023/07/20 02:06:44;;;;;;;9.82;6.38;;;;;;;18.84;78.52;92665.06;2041316;70;20135;-79
2023/07/20 02:09:17;;;;;;;10.70;6.32;;;;;;;18.91;76.82;92670.25;2041053;70;20273;-79
2023/07/20 02:11:43;;;;;;;10.77;6.15;;;;;;;18.79;77.69;92669.94;2040541;70;20902;-79
2023/07/20 02:14:08;;;;;;;8.18;6.25;;;;;;;18.86;77.93;92663.00;2037600;70;20310;-78
2023/07/20 02:16:37;;;;;;;8.57;6.07;;;;;;;18.87;78.44;92664.44;2040861;70;20175;-79
2023/07/20 02:19:04;;;;;;;14.50;6.30;;;;;;;18.89;77.83;92673.06;2040950;70;20159;-78
2023/07/20 02:21:30;;;;;;;10.85;6.57;;;;;;;18.93;78.47;92678.91;2037713;70;20170;-80
2023/07/20 02:23:56;;;;;;;10.77;6.53;;;;;;;18.82;79.06;92665.72;2041164;70;20585;-78
2023/07/20 02:26:24;;;;;;;14.00;6.40;;;;;;;18.79;79.06;92667.06;2037637;70;20135;-78
2023/07/20 02:28:50;;;;;;;8.20;6.03;;;;;;;18.88;77.31;92668.03;2038013;70;20219;-78
2023/07/20 02:31:16;;;;;;;10.23;6.22;;;;;;;18.79;78.88;92667.78;2037897;70;20238;-78
2023/07/20 02:33:46;;;;;;;10.27;6.00;;;;;;;18.84;78.71;92665.78;2037730;70;20150;-79
2023/07/20 02:36:12;;;;;;;14.63;6.63;;;;;;;18.91;78.08;92667.41;2041103;70;20147;-79
2023/07/20 02:38:37;;;;;;;8.70;5.68;;;;;;;18.93;77.55;92676.03;2040959;70;20167;-79
2023/07/20 02:41:03;;;;;;;11.23;6.18;;;;;;;18.85;77.60;92672.94;2040802;70;20163;-80
2023/07/20 02:43:29;;;;;;;9.57;5.78;;;;;;;18.84;77.58;92671.50;2040533;70;20147;-80
2023/07/20 02:45:55;;;;;;;14.25;6.68;;;;;;;18.16;81.37;92667.94;2037720;70;20625;-79
2023/07/20 02:48:20;;;;;;;10.40;6.40;;;;;;;18.56;79.70;92674.19;2040817;70;20144;-78
2023/07/20 02:50:47;;;;;;;10.95;6.43;;;;;;;18.69;79.51;92681.00;2037657;70;20185;-79
2023/07/20 02:53:13;;;;;;;11.32;6.50;;;;;;;18.68;78.87;92671.69;2037485;70;20143;-79
2023/07/20 02:55:38;;;;;;;8.95;6.28;;;;;;;18.61;78.85;92666.50;2040875;70;20250;-78
2023/07/20 02:58:04;;;;;;;11.35;6.35;;;;;;;18.76;78.13;92674.09;2040264;70;20633;-79
2023/07/20 03:00:30;;;;;;;13.48;6.20;;;;;;;18.78;78.09;92669.19;2040611;70;20238;-80
2023/07/20 03:02:56;;;;;;;12.43;5.70;;;;;;;18.87;77.87;92678.69;2040884;70;20200;-78
2023/07/20 03:05:25;;;;;;;8.95;6.10;;;;;;;18.84;77.87;92679.34;2037464;70;20541;-79
2023/07/20 03:07:51;;;;;;;11.60;6.25;;;;;;;18.77;79.11;92675.56;2037719;70;20158;-80
2023/07/20 03:10:17;;;;;;;8.98;6.13;;;;;;;18.69;79.96;92672.44;2037645;70;20191;-79
2023/07/20 03:12:43;;;;;;;14.50;6.28;;;;;;;18.76;79.23;92688.34;2037508;70;20162;-78
2023/07/20 03:15:12;;;;;;;8.88;5.97;;;;;;;18.74;79.88;92691.88;2034967;70;20143;-78
2023/07/20 03:17:40;;;;;;;9.95;6.00;;;;;;;18.81;78.69;92692.78;2037427;70;20159;-80
2023/07/20 03:20:09;;;;;;;9.50;6.10;;;;;;;18.82;78.45;92696.38;2041312;70;20140;-80
2023/07/20 03:22:37;;;;;;;12.73;6.15;;;;;;;18.69;78.85;92681.00;2041512;70;20744;-79
2023/07/20 03:25:04;;;;;;;9.93;5.93;;;;;;;18.78;78.53;92683.47;2037728;70;20210;-78
2023/07/20 03:27:30;;;;;;;14.82;6.28;;;;;;;18.76;78.65;92676.94;2038002;70;20155;-79
2023/07/20 03:29:57;;;;;;;11.27;6.40;;;;;;;18.60;79.24;92682.88;2035441;70;20166;-79
2023/07/20 03:32:22;;;;;;;8.52;6.43;;;;;;;18.47;80.53;92676.06;2037697;70;20151;-79
2023/07/20 03:34:48;;;;;;;11.30;6.47;;;;;;;18.71;79.16;92678.22;2041320;70;20195;-80
2023/07/20 03:37:14;;;;;;;14.02;6.72;;;;;;;18.65;80.09;92672.31;2037914;70;20230;-79
2023/07/20 03:39:41;;;;;;;11.15;6.05;;;;;;;18.62;79.60;92668.66;2038145;70;20148;-80
2023/07/20 03:42:07;;;;;;;8.10;6.07;;;;;;;18.70;79.70;92668.22;2037917;70;20167;-80
2023/07/20 03:44:34;;;;;;;11.95;6.10;;;;;;;18.63;79.76;92672.97;2041404;70;20210;-80
2023/07/20 03:46:59;;;;;;;8.13;6.13;;;;;;;18.67;80.24;92680.94;2035326;70;20628;-80
2023/07/20 03:49:25;;;;;;;11.10;5.90;;;;;;;18.61;79.85;92675.78;2041431;70;20139;-80
2023/07/20 03:51:50;;;;;;;10.15;5.93;;;;;;;18.74;79.15;92679.75;2041521;70;20167;-79
2023/07/20 03:54:16;;;;;;;13.05;6.18;;;;;;;18.59;80.51;92677.81;2041768;70;20158;-79
2023/07/20 03:56:42;;;;;;;8.35;6.45;;;;;;;18.67;79.85;92683.78;2041664;70;20163;-79
2023/07/20 03:59:07;;;;;;;15.40;6.20;;;;;;;18.63;80.56;92687.22;2041840;70;20167;-80
2023/07/20 04:01:37;;;;;;;10.88;5.80;;;;;;;18.76;78.62;92688.34;2041968;70;20147;-79
2023/07/20 04:04:08;;;;;;;9.65;6.07;;;;;;;18.53;79.19;92696.19;2041831;70;20307;-80
2023/07/20 04:06:34;;;;;;;9.48;6.97;;;;;;;18.38;80.43;92694.31;2041874;70;20601;-80
2023/07/20 04:09:00;;;;;;;8.32;5.90;;;;;;;18.63;79.49;92697.91;2038591;70;20155;-80
2023/07/20 04:11:25;;;;;;;7.78;6.28;;;;;;;18.56;80.22;92699.84;2041900;70;20659;-81
2023/07/20 04:13:51;;;;;;;7.88;6.28;;;;;;;18.52;81.12;92691.16;2038404;70;20629;-80
2023/07/20 04:16:17;;;;;;;9.43;5.93;;;;;;;18.64;80.50;92699.34;2041743;70;20171;-81
2023/07/20 04:18:42;;;;;;;14.57;6.25;;;;;;;18.64;80.98;92700.09;2041499;70;20144;-81
2023/07/20 04:21:09;;;;;;;10.07;6.28;;;;;;;18.70;80.55;92708.88;2041709;70;20601;-81
2023/07/20 04:23:35;;;;;;;11.40;5.80;;;;;;;18.81;79.33;92709.16;2038292;70;20143;-80
2023/07/20 04:26:01;;;;;;;11.23;6.80;;;;;;;18.81;79.43;92700.63;2038556;70;20238;-80
2023/07/20 04:28:28;;;;;;;12.02;6.13;;;;;;;18.74;79.37;92703.28;2038120;70;20232;-80
2023/07/20 04:30:54;;;;;;;15.38;6.47;;;;;;;18.79;79.16;92707.72;2041610;70;20577;-80
2023/07/20 04:33:21;;;;;;;12.07;6.47;;;;;;;18.72;79.96;92699.63;2038469;70;20252;-80
2023/07/20 04:35:54;;;;;;;9.70;6.10;;;;;;;18.74;79.85;92680.47;2038276;70;20233;-80
2023/07/20 04:38:26;;;;;;;14.80;6.10;;;;;;;18.74;80.30;92682.59;2038380;70;20518;-80
2023/07/20 04:41:00;;;;;;;10.25;5.90;;;;;;;18.74;80.06;92688.31;2038534;70;20147;-80
2023/07/20 04:43:29;;;;;;;9.20;6.18;;;;;;;18.69;80.65;92690.31;2038360;70;20558;-80
2023/07/20 04:45:54;;;;;;;9.82;5.88;;;;;;;18.79;80.14;92698.44;2038506;70;20153;-80
2023/07/20 04:48:20;;;;;;;10.98;6.03;;;;;;;18.87;78.96;92707.22;2038430;70;20139;-81
2023/07/20 04:50:50;;;;;;;9.00;6.50;;;;;;;18.77;79.98;92710.50;2038467;70;20147;-80
2023/07/20 04:53:16;;;;;;;11.32;6.47;;;;;;;18.91;80.08;92718.03;2041743;70;20231;-81
2023/07/20 04:55:50;;;;;;;12.68;7.05;;;;;;;18.85;80.15;92715.00;2038619;70;20148;-79
2023/07/20 04:58:18;;;;;;;12.23;7.07;;;;;;;18.70;79.97;92711.72;2038471;70;20148;-80
2023/07/20 05:00:44;;;;;;;10.88;6.57;;;;;;;18.89;79.34;92712.28;2038872;70;20159;-79
2023/07/20 05:03:10;;;;;;;13.75;6.22;;;;;;;19.00;77.31;92711.16;2038452;70;20139;-81
2023/07/20 05:05:35;;;;;;;11.52;6.75;;;;;;;18.98;78.17;92700.44;2038491;70;20158;-80
2023/07/20 05:08:01;;;;;;;9.73;7.10;;;;;;;19.05;78.04;92709.88;2041625;70;20143;-80
2023/07/20 05:10:27;;;;;;;9.80;6.20;;;;;;;19.06;78.46;92694.25;2038572;70;20513;-80
2023/07/20 05:12:52;;;;;;;15.27;7.30;;;;;;;19.07;79.35;92704.25;2041719;70;20633;-80
2023/07/20 05:15:18;;;;;;;9.00;6.35;;;;;;;19.03;78.85;92699.16;2041736;70;20162;-78
2023/07/20 05:17:44;;;;;;;10.00;6.18;;;;;;;19.02;79.33;92697.72;2038376;70;20158;-79
2023/07/20 05:20:10;;;;;;;11.35;6.40;;;;;;;19.08;79.59;92694.31;2038468;70;20154;-80
2023/07/20 05:22:39;;;;;;;9.25;6.32;;;;;;;19.17;79.40;92698.13;2041819;70;20558;-80
2023/07/20 05:25:07;;;;;;;11.40;6.43;;;;;;;19.13;79.53;92680.88;2038583;70;20143;-81
2023/07/20 05:27:34;;;;;;;11.20;6.45;;;;;;;19.32;79.00;92696.41;2041941;70;20617;-80
2023/07/20 05:29:59;;;;;;;12.75;6.32;;;;;;;19.25;79.55;92696.22;2041775;70;20158;-80
2023/07/20 05:32:25;;;;;;;7.70;5.95;;;;;;;19.27;79.58;92695.56;2043042;70;20147;-79
2023/07/20 05:34:54;;;;;;;13.50;6.93;;;;;;;19.28;75.67;92694.16;2041910;70;20152;-80
2023/07/20 05:37:20;;;;;;;11.65;6.57;;;;;;;19.03;77.63;92693.44;2041812;70;20147;-80
2023/07/20 05:39:46;;;;;;;13.95;7.38;;;;;;;18.91;79.00;92695.22;2042348;70;20165;-81
2023/07/20 05:42:11;;;;;;;11.85;6.95;;;;;;;19.14;79.63;92693.75;2041542;70;20148;-80
2023/07/20 05:44:37;;;;;;;10.13;6.95;;;;;;;19.03;79.24;92692.72;2042041;70;20516;-80
2023/07/20 05:47:03;;;;;;;9.63;7.03;;;;;;;19.04;79.27;92685.63;2041915;70;20524;-80
2023/07/20 05:49:28;;;;;;;10.75;6.90;;;;;;;19.25;78.62;92686.94;2041796;70;20199;-80
2023/07/20 05:51:56;;;;;;;9.85;6.75;;;;;;;19.47;78.52;92690.44;2041857;70;20152;-80
2023/07/20 05:54:24;;;;;;;12.75;7.15;;;;;;;19.62;78.82;92688.72;2041917;70;20139;-81
2023/07/20 05:56:50;;;;;;;11.15;6.80;;;;;;;19.78;78.34;92697.69;2041614;70;20234;-81
2023/07/20 05:59:16;;;;;;;12.50;7.05;;;;;;;19.78;78.17;92699.81;2042283;70;20145;-80
2023/07/20 06:01:42;;;;;;;9.25;6.55;;;;;;;19.68;78.85;92696.72;2042072;70;20144;-82
2023/07/20 06:04:08;;;;;;;10.77;6.70;;;;;;;19.76;77.76;92702.63;2042482;70;20163;-81
2023/07/20 06:06:33;;;;;;;12.80;7.72;;;;;;;19.79;76.56;92707.00;2042231;70;20146;-81
2023/07/20 06:09:03;;;;;;;9.73;7.05;;;;;;;19.41;77.87;92710.22;2042760;70;20621;-80
2023/07/20 06:11:32;;;;;;;10.45;6.95;;;;;;;19.21;77.61;92710.38;2042642;70;20616;-80
2023/07/20 06:13:57;;;;;;;12.05;7.00;;;;;;;19.32;78.01;92704.97;2041616;70;20159;-80
2023/07/20 06:16:23;;;;;;;11.68;7.07;;;;;;;19.43;77.39;92707.44;2041647;70;20171;-80
2023/07/20 06:18:48;;;;;;;9.73;6.97;;;;;;;19.60;76.99;92697.19;2041659;70;20140;-79
2023/07/20 06:21:14;;;;;;;10.02;6.72;;;;;;;19.74;76.50;92705.44;2038336;70;20624;-79
2023/07/20 06:23:41;;;;;;;11.65;6.85;;;;;;;19.78;77.03;92705.53;2041686;70;20154;-79
2023/07/20 06:26:07;;;;;;;11.98;7.05;;;;;;;19.79;78.37;92707.75;2041874;70;20602;-81
2023/07/20 06:28:33;;;;;;;9.43;6.57;;;;;;;19.93;77.27;92715.97;2041620;70;20214;-80
2023/07/20 06:31:07;;;;;;;13.70;6.78;;;;;;;19.97;75.99;92715.31;2041810;70;20151;-80
2023/07/20 06:33:34;;;;;;;9.25;7.22;;;;;;;19.89;74.62;92715.84;2041835;70;20597;-79
2023/07/20 06:36:00;;;;;;;12.65;6.75;;;;;;;19.85;75.58;92710.03;2041811;70;20147;-85
2023/07/20 06:38:25;;;;;;;12.30;7.10;;;;;;;19.61;77.20;92700.78;2042291;70;20673;-82
2023/07/20 06:40:51;;;;;;;12.63;7.07;;;;;;;19.94;76.40;92708.13;2042109;70;20161;-82
2023/07/20 06:43:18;;;;;;;14.48;7.05;;;;;;;20.17;74.87;92706.56;2041923;70;20151;-82
2023/07/20 06:45:43;;;;;;;10.40;7.10;;;;;;;20.35;74.70;92706.28;2041887;70;20178;-80
2023/07/20 06:48:09;;;;;;;11.70;7.55;;;;;;;20.34;74.22;92699.81;2042069;70;20138;-81
2023/07/20 06:50:35;;;;;;;10.68;7.07;;;;;;;20.53;71.11;92695.31;2041895;70;20207;-82
2023/07/20 06:53:03;;;;;;;12.98;7.50;;;;;;;20.35;73.22;92689.13;2041976;70;20143;-82
2023/07/20 06:55:29;;;;;;;18.33;7.30;;;;;;;20.23;73.69;92683.84;2041641;70;20230;-81
2023/07/20 06:57:55;;;;;;;10.68;7.30;;;;;;;20.31;73.12;92701.19;2041469;70;20153;-82
2023/07/20 07:00:21;;;;;;;11.95;7.05;;;;;;;20.33;74.10;92698.38;2041773;70;20250;-82
2023/07/20 07:02:46;;;;;;;11.75;6.93;;;;;;;20.43;73.23;92695.03;2038587;70;20167;-82
2023/07/20 07:05:14;;;;;;;13.05;7.60;;;;;;;20.31;73.47;92701.91;2038619;70;20150;-83
2023/07/20 07:07:40;;;;;;;11.43;7.50;;;;;;;20.07;74.22;92698.47;2041875;70;20147;-82
2023/07/20 07:10:06;;;;;;;12.70;7.65;;;;;;;20.37;73.50;92706.31;2041715;70;20139;-82
2023/07/20 07:12:35;;;;;;;11.27;7.85;;;;;;;20.12;74.04;92705.00;2041657;70;20223;-82
2023/07/20 07:15:02;;;;;;;10.48;7.43;;;;;;;20.50;73.24;92710.97;2042135;70;20689;-84
2023/07/20 07:17:28;;;;;;;12.60;7.47;;;;;;;20.35;73.28;92694.84;2038492;70;20143;-82
2023/07/20 07:19:56;;;;;;;12.85;7.35;;;;;;;20.10;74.52;92704.94;2038427;70;20138;-81
2023/07/20 07:22:22;;;;;;;12.43;7.78;;;;;;;20.54;73.48;92697.50;2041702;70;20586;-81
2023/07/20 07:24:48;;;;;;;11.05;7.20;;;;;;;21.12;72.09;92698.75;2038484;70;20548;-80
2023/07/20 07:27:16;;;;;;;13.60;7.28;;;;;;;21.36;71.77;92690.00;2041930;70;20167;-81
2023/07/20 07:29:45;;;;;;;11.50;7.88;;;;;;;21.08;71.12;92702.28;2039038;70;20218;-83
2023/07/20 07:32:11;;;;;;;11.02;7.55;;;;;;;21.62;70.05;92707.72;2042345;70;20529;-82
2023/07/20 07:34:37;;;;;;;11.32;7.72;;;;;;;20.77;72.56;92700.88;2042488;70;20143;-82
2023/07/20 07:37:04;;;;;;;11.77;7.53;;;;;;;21.01;73.07;92695.69;2039142;70;20194;-81
2023/07/20 07:39:31;;;;;;;12.02;8.55;;;;;;;21.49;68.96;92695.31;2038573;70;20619;-82
2023/07/20 07:41:57;;;;;;;10.45;7.72;;;;;;;21.58;68.16;92681.88;2042100;70;20150;-82
2023/07/20 07:44:22;;;;;;;11.43;7.55;;;;;;;21.64;68.12;92678.41;2042666;70;20589;-85
2023/07/20 07:46:48;;;;;;;11.93;8.35;;;;;;;21.52;67.78;92673.88;2039111;70;20163;-86
2023/07/20 07:49:19;;;;;;;17.13;8.02;;;;;;;21.06;69.09;92685.78;2042419;70;20234;-83
2023/07/20 07:51:45;;;;;;;13.00;8.45;;;;;;;21.29;68.47;92692.72;2039137;70;20143;-82
2023/07/20 07:54:11;;;;;;;10.15;7.50;;;;;;;21.57;68.46;92691.84;2042460;70;20147;-82
2023/07/20 07:56:36;;;;;;;13.00;8.38;;;;;;;22.01;69.61;92680.53;2039078;70;20203;-83
2023/07/20 07:59:08;;;;;;;11.88;7.75;;;;;;;21.95;67.15;92691.16;2043046;70;20210;-85
2023/07/20 08:01:44;;;;;;;10.68;7.93;;;;;;;22.25;67.48;92691.00;2043814;70;20170;-83
2023/07/20 08:04:09;;;;;;;16.13;8.20;;;;;;;22.41;66.03;92691.28;2043000;70;20135;-77
2023/07/20 08:06:35;;;;;;;11.15;7.90;;;;;;;22.68;65.94;92695.31;2042499;70;20147;-83
2023/07/20 08:09:01;;;;;;;9.38;7.78;;;;;;;22.76;64.88;92686.06;2042372;70;20139;-82
2023/07/20 08:11:30;;;;;;;12.27;7.65;;;;;;;22.58;64.21;92687.22;2042839;70;20143;-90
2023/07/20 08:13:56;;;;;;;11.45;7.30;;;;;;;22.85;63.44;92687.66;2042059;70;20143;-82
2023/07/20 08:16:22;;;;;;;9.68;7.47;;;;;;;22.92;63.07;92685.63;2042249;70;20212;-82
2023/07/20 08:18:48;;;;;;;9.00;7.20;;;;;;;23.41;62.63;92677.66;2042055;70;20625;-83
2023/07/20 08:21:13;;;;;;;10.98;7.57;;;;;;;22.93;61.99;92684.94;2041996;70;20182;-83
2023/07/20 08:23:39;;;;;;;13.15;7.93;;;;;;;23.28;62.34;92677.53;2042042;70;20156;-83
2023/07/20 08:26:04;;;;;;;10.55;7.90;;;;;;;23.46;59.84;92676.28;2041995;70;20190;-81
2023/07/20 08:28:30;;;;;;;14.20;7.85;;;;;;;24.13;60.21;92671.31;2041980;70;20135;-82
2023/07/20 08:30:55;;;;;;;9.02;7.75;;;;;;;24.08;58.86;92681.34;2042315;70;20219;-82
2023/07/20 08:33:21;;;;;;;10.23;7.65;;;;;;;24.25;57.99;92673.59;2042176;70;20147;-83
2023/07/20 08:35:47;;;;;;;11.70;8.23;;;;;;;24.64;57.26;92679.72;2042255;70;20597;-83
2023/07/20 08:38:13;;;;;;;9.93;7.47;;;;;;;24.11;57.86;92679.22;2041984;70;20140;-83
2023/07/20 08:40:44;;;;;;;10.57;7.82;;;;;;;25.13;56.26;92675.03;2041826;70;20159;-83
2023/07/20 08:43:18;;;;;;;14.50;7.57;;;;;;;25.20;55.04;92672.91;2041885;70;20693;-82
2023/07/20 08:45:44;;;;;;;9.75;7.38;;;;;;;25.41;55.81;92670.88;2036489;70;20154;-83
2023/07/20 08:48:11;;;;;;;10.35;7.95;;;;;;;24.78;55.87;92674.78;2042811;70;20605;-83
2023/07/20 08:50:38;;;;;;;14.85;8.23;;;;;;;24.28;55.96;92667.16;2042617;70;20139;-83
2023/07/20 08:53:07;;;;;;;9.73;7.68;;;;;;;25.01;55.20;92660.53;2043865;70;20154;-83
2023/07/20 08:55:33;;;;;;;11.15;7.70;;;;;;;25.39;54.52;92657.19;2044731;70;20143;-83
2023/07/20 08:58:00;;;;;;;9.65;7.38;;;;;;;25.83;54.53;92659.53;2042628;70;20159;-83
2023/07/20 09:00:29;;;;;;;11.27;6.85;;;;;;;26.29;54.07;92654.59;2042373;70;20622;-82
2023/07/20 09:02:56;;;;;;;10.18;7.00;;;;;;;26.61;53.96;92645.97;2042016;70;20175;-82
2023/07/20 09:05:26;;;;;;;9.50;7.40;;;;;;;26.66;51.46;92646.69;2041717;70;20231;-83
2023/07/20 09:07:53;;;;;;;12.75;7.80;;;;;;;25.66;53.50;92643.63;2042133;70;20620;-83
2023/07/20 09:10:21;;;;;;;9.25;7.25;;;;;;;26.18;53.46;92650.25;2041920;70;20164;-82
2023/07/20 09:12:47;;;;;;;8.43;6.57;;;;;;;27.16;52.80;92653.19;2041763;70;20685;-83
2023/07/20 09:15:13;;;;;;;9.43;7.38;;;;;;;27.02;52.08;92642.34;2041497;70;20206;-81
2023/07/20 09:17:38;;;;;;;8.68;7.20;;;;;;;26.80;51.03;92643.09;2041555;70;20179;-82
2023/07/20 09:20:10;;;;;;;10.70;6.88;;;;;;;27.22;50.73;92642.34;2041055;70;20185;-82
2023/07/20 09:22:41;;;;;;;10.75;7.55;;;;;;;26.42;50.67;92644.50;2041150;70;20593;-82
2023/07/20 09:25:17;;;;;;;9.88;6.78;;;;;;;26.59;50.49;92630.84;2041284;70;20183;-84
2023/07/20 09:27:46;;;;;;;9.77;6.72;;;;;;;27.42;48.72;92630.00;2040598;70;20809;-84
2023/07/20 09:30:14;;;;;;;10.18;6.85;;;;;;;26.65;49.58;92621.44;2037626;70;20131;-79
2023/07/20 09:32:44;;;;;;;8.98;6.55;;;;;;;27.08;48.43;92611.31;2041345;70;20271;-80
2023/07/20 09:35:17;;;;;;;8.93;6.40;;;;;;;28.01;48.45;92620.34;2038465;70;20159;-82
2023/07/20 09:37:59;;;;;;;11.85;7.35;;;;;;;27.84;45.88;92614.66;2041750;70;20144;-82
2023/07/20 09:40:26;;;;;;;11.00;6.72;;;;;;;27.60;47.33;92611.84;2041787;70;20175;-82
2023/07/20 09:42:59;;;;;;;9.48;7.30;;;;;;;27.69;46.43;92612.53;2041589;70;20153;-82
2023/07/20 09:46:02;;;;;;;13.60;6.90;;;;;;;27.75;46.52;92598.78;2041663;70;20174;-81
2023/07/20 09:48:29;;;;;;;8.38;6.28;;;;;;;28.35;46.45;92608.56;2038813;70;20302;-83
2023/07/20 09:50:56;;;;;;;11.10;6.43;;;;;;;28.33;46.45;92591.19;2041741;70;20140;-80
2023/07/20 09:53:26;;;;;;;8.77;6.25;;;;;;;28.42;45.31;92585.38;2042161;70;20186;-86
2023/07/20 09:55:53;;;;;;;8.55;6.15;;;;;;;28.07;44.33;92588.50;2041829;70;20163;-81
2023/07/20 09:58:19;;;;;;;8.27;6.13;;;;;;;28.38;45.04;92591.19;2041665;70;20613;-82
2023/07/20 10:00:49;;;;;;;8.02;6.15;;;;;;;28.40;43.64;92580.31;2038776;70;20135;-80
2023/07/20 10:03:18;;;;;;;10.20;5.80;;;;;;;28.52;43.87;92585.28;2036054;70;20159;-82
2023/07/20 10:05:56;;;;;;;8.52;5.85;;;;;;;28.45;44.88;92578.81;2041988;70;20147;-81
2023/07/20 10:08:25;;;;;;;7.93;6.30;;;;;;;28.24;44.33;92574.63;2042433;70;20162;-81
2023/07/20 10:10:51;;;;;;;7.85;6.20;;;;;;;27.29;46.41;92571.50;2039283;70;20288;-82
2023/07/20 10:13:27;;;;;;;7.47;5.88;;;;;;;27.67;46.63;92572.06;2042008;70;20159;-82
2023/07/20 10:16:09;;;;;;;7.03;5.63;;;;;;;27.93;45.90;92571.94;2042265;70;20222;-83
2023/07/20 10:18:50;;;;;;;9.70;5.68;;;;;;;27.88;48.86;92575.59;2036856;70;20162;-83
2023/07/20 10:21:19;;;;;;;7.70;5.72;;;;;;;28.39;49.38;92570.19;2042532;70;20234;-85
2023/07/20 10:23:45;;;;;;;7.00;5.43;;;;;;;28.02;46.12;92570.44;2041888;70;20142;-80
2023/07/20 10:26:11;;;;;;;9.82;5.55;;;;;;;27.90;44.03;92561.09;2042269;70;20143;-82
2023/07/20 10:28:38;;;;;;;7.53;5.50;;;;;;;28.74;44.35;92561.22;2041518;70;20152;-81
2023/07/20 10:31:11;;;;;;;7.93;5.35;;;;;;;28.66;42.65;92553.31;2041626;70;20159;-81
2023/07/20 10:33:37;;;;;;;;;;;;;;;29.60;41.21;92555.25;2041971;70;20139;-80
2023/07/20 10:36:05;;;;;;;8.27;6.10;;;;;;;29.21;43.86;92554.97;2039928;70;20048;-81
2023/07/20 10:38:41;;;;;;;7.97;5.32;;;;;;;29.44;41.90;92541.63;2041785;70;20188;-82
2023/07/20 10:41:28;;;;;;;9.85;5.47;;;;;;;30.28;42.44;92541.22;2039110;70;20127;-80
2023/07/20 10:44:05;;;;;;;7.30;5.50;;;;;;;32.67;37.56;92539.41;2042575;70;20155;-81
2023/07/20 10:46:40;;;;;;;7.18;4.97;;;;;;;31.41;37.67;92533.47;2042715;70;20226;-77
2023/07/20 10:49:09;;;;;;;9.45;5.28;;;;;;;34.78;33.32;92529.00;2043096;70;20154;-81
2023/07/20 10:51:42;;;;;;;6.03;4.85;;;;;;;31.47;38.44;92530.41;2041714;70;20253;-80
2023/07/20 10:54:29;;;;;;;5.53;4.85;;;;;;;33.36;33.42;92528.16;2041614;70;20200;-80
2023/07/20 10:57:15;;;;;;;7.53;4.78;;;;;;;32.46;34.78;92521.69;2041470;70;20189;-81
2023/07/20 10:59:41;;;;;;;6.72;4.47;;;;;;;37.41;30.83;92535.19;2047880;70;20154;-79
2023/07/20 11:02:08;;;;;;;5.75;4.75;;;;;;;33.19;33.40;92521.31;2045772;70;20137;-80
2023/07/20 11:04:44;;;;;;;6.93;4.40;;;;;;;32.77;33.70;92518.03;2048791;70;20226;-80
2023/07/20 11:07:10;;;;;;;9.15;4.32;;;;;;;34.96;33.47;92524.75;2048788;70;20159;-82
2023/07/20 11:09:37;;;;;;;7.72;4.57;;;;;;;32.58;35.82;92511.97;2049445;70;20137;-82
2023/07/20 11:12:14;;;;;;;4.95;4.20;;;;;;;37.61;30.34;92517.38;2048505;70;20592;-83
2023/07/20 11:14:52;;;;;;;4.88;4.13;;;;;;;39.56;26.40;92524.28;2048086;70;20556;-79
2023/07/20 11:17:22;;;;;;;7.68;4.10;;;;;;;39.41;26.53;92511.13;2048193;70;20143;-82
2023/07/20 11:19:55;;;;;;;5.05;3.80;;;;;;;41.44;23.88;92522.06;2048010;70;20238;-81
2023/07/20 11:22:22;;;;;;;6.60;3.88;;;;;;;42.40;22.14;92513.97;2048016;70;20127;-82
2023/07/20 11:24:49;;;;;;;4.95;3.75;;;;;;;45.69;20.72;92526.78;2048103;70;20146;-83
2023/07/20 11:27:15;;;;;;;6.22;3.47;;;;;;;41.77;21.77;92511.94;2047977;70;20135;-81
2023/07/20 11:29:40;;;;;;;5.22;3.60;;;;;;;40.08;25.17;92495.75;2048214;70;20147;-83
2023/07/20 11:32:06;;;;;;;3.80;3.40;;;;;;;36.31;26.48;92487.63;2048312;70;20180;-83
2023/07/20 11:34:34;;;;;;;7.07;3.67;;;;;;;41.99;21.94;92492.84;2048075;70;20139;-82
2023/07/20 11:37:02;;;;;;;4.00;3.25;;;;;;;44.58;20.06;92496.31;2039157;70;20143;-80